EBOSEHWO

Guest
Details From EBOS - Oostende
To EHWO - Woensdrecht
Flight Number -
Tags generated
Created
Modified
Stats Distance 57 nm / 106 km
Max Altitude 7,200 ft / 2,195 m
Waypoints 3
Social Downloads 0
Likes 0
Share VATSIM

Download

Looking for another format? Having issues loading an existing format? Contact us
Advertisement - Login to hide

Notes

Basic altitude profile: - Ascent Rate: 2800ft/min - Ascent Speed: 250kts - Cruise Altitude: 11000ft - Cruise Speed: 339kts - Descent Rate: 1800ft/min - Descent Speed: 250kts Options: - Use NATs: yes - Use PACOTS: yes - Use low airways: yes - Use high airways: yes

Route

EBOS LUMEN EHWO

ID Type Via Altitude Latitude Longitude Leg Dist Tot Dist Heading (true) Name
O EBOS APT - 0 ft / 0 m 51.19997˚ 2.87501˚ - 0 nm - Oostende
LUMEN FIX - 7,200 ft / 2,195 m 51.26946˚ 3.40657˚ 20 nm 20 nm 78° / 78° -
O EHWO APT - 0 ft / 0 m 51.44900˚ 4.34208˚ 36 nm 57 nm 73° / 73° Woensdrecht

Altitude Profile

Advertisement - Login to hide

EBOS

Details ICAO EBOS (OST)
Name Oostende
Region Belgium
Timezone Europe/Brussels (UTC+1.0)
Stats Elevation 13 ft / 4 m (AMSL)
Location 51.199967° 2.875008°
Runways 1
Magnetic Variation 0.588° E

METAR

EBOS 132020Z 27022KT 9999 FEW022 06/03 Q0991 TEMPO 28025G35KT

Decode

TAF

TAF EBOS 131707Z 1318/1424 25015KT 6000 -SHRA SCT007 BKN014TCU BECMG 1318/1320 SCT015 TEMPO 1318/1321 28023G35KT TEMPO 1323/1402 28030G45KT 3000 SHRA SHRAGS BKN007 BKN012CB TEMPO 1402/1408 26022G32KT 4000 SHRA BKN014CB TEMPO 1422/1424 3500 RA RADZ BKN004

Decode

Departure Runways

ID Width Length Bearing (true) Bearing (mag) Surface Threshold Offset Overrun Length
08 148 ft / 45 m 10,515 ft / 3,205 m 76.36° 75.77° Asphalt 984 ft / 300 m 0 ft / 0 m
26 148 ft / 45 m 10,515 ft / 3,205 m 256.39° 255.80° Asphalt 1,362 ft / 415 m 0 ft / 0 m

EHWO

Details ICAO EHWO (WOE)
Name Woensdrecht
Region Netherlands
Timezone Europe/Amsterdam (UTC+1.0)
Stats Elevation 63 ft / 19 m (AMSL)
Location 51.449000° 4.342084°
Runways 1
Magnetic Variation 1.045° E

METAR

EHWO 132025Z AUTO 26018KT 230V300 9999 FEW030 SCT063 OVC160 06/05 Q0988 BLU

Decode

TAF

Not found

Destination Runways

ID Width Length Bearing (true) Bearing (mag) Surface Threshold Offset Overrun Length
07 148 ft / 45 m 7,974 ft / 2,430 m 69.45° 68.41° Asphalt 0 ft / 0 m 82 ft / 25 m
25 148 ft / 45 m 7,974 ft / 2,430 m 249.47° 248.43° Asphalt 0 ft / 0 m 82 ft / 25 m

Approach Navaids

Runway Type Ident Frequency Range Bearing (true) Bearing (mag) Slope Elevation
07 Localiser WDZ 108.15 MHz 18 nm / 33 km 69.06° 68.02° - 63 ft / 19 m (AMSL)
07 Glidescope WDZ 108.15 MHz 15 nm / 28 km 69.06° 68.02° 3.00° 63 ft / 19 m (AMSL)
25 Localiser WDO 108.15 MHz 18 nm / 33 km 249.53° 248.48° - 63 ft / 19 m (AMSL)
25 Glidescope WDO 108.15 MHz 15 nm / 28 km 249.53° 248.48° 3.00° 63 ft / 19 m (AMSL)